Time,TemperatureF,DewpointF,PressureIn,WindDirection,WindDirectionDegrees,WindSpeedMPH,WindSpeedGustMPH,Humidity,HourlyPrecipIn,Conditions,Clouds,dailyrainin,SoftwareType,DateUTC
2013-03-03 00:00:00,54.2,38.9,30.14,West,265,0.0,1.0,56,0.00,,,-99.99,VWS V9.05,2013-03-03 08:00:00,
2013-03-03 00:08:00,54.2,38.4,30.14,West,265,0.0,2.0,55,0.00,,,-99.99,VWS V9.05,2013-03-03 08:08:00,
2013-03-03 00:14:00,54.0,39.1,30.14,West,265,0.0,2.0,57,0.00,,,-99.99,VWS V9.05,2013-03-03 08:14:00,
2013-03-03 00:22:00,53.9,37.2,30.14,West,265,0.0,3.0,53,0.00,,,-99.99,VWS V9.05,2013-03-03 08:22:00,
2013-03-03 00:30:00,53.8,37.1,30.14,West,265,1.0,3.0,53,0.00,,,-99.99,VWS V9.05,2013-03-03 08:30:00,
2013-03-03 00:38:00,53.7,37.5,30.14,West,263,0.0,2.0,54,0.00,,,-99.99,VWS V9.05,2013-03-03 08:38:00,
2013-03-03 00:44:00,53.6,37.8,30.14,SW,223,0.0,6.0,55,0.00,,,-99.99,VWS V9.05,2013-03-03 08:44:00,
2013-03-03 00:52:00,53.6,37.8,30.14,SW,223,0.0,6.0,55,0.00,,,-99.99,VWS V9.05,2013-03-03 08:52:00,
2013-03-03 01:00:00,53.6,37.8,30.14,SW,223,0.0,2.0,55,0.00,,,-99.99,VWS V9.05,2013-03-03 09:00:00,
2013-03-03 01:08:00,53.7,37.9,30.14,SW,223,0.0,3.0,55,0.00,,,-99.99,VWS V9.05,2013-03-03 09:08:00,
2013-03-03 01:14:00,53.6,37.8,30.14,SW,223,1.0,3.0,55,0.00,,,-99.99,VWS V9.05,2013-03-03 09:14:00,
2013-03-03 01:22:00,53.6,37.8,30.13,SW,223,0.0,3.0,55,0.00,,,-99.99,VWS V9.05,2013-03-03 09:22:00,
2013-03-03 01:30:00,53.7,37.9,30.14,SW,223,2.0,5.0,55,0.00,,,-99.99,VWS V9.05,2013-03-03 09:30:00,
2013-03-03 01:38:00,53.6,37.8,30.13,SW,223,1.0,2.0,55,0.00,,,-99.99,VWS V9.05,2013-03-03 09:38:00,
2013-03-03 01:44:00,53.6,37.8,30.13,SW,223,0.0,5.0,55,0.00,,,-99.99,VWS V9.05,2013-03-03 09:44:00,
2013-03-03 01:52:00,53.6,37.8,30.13,SSW,200,2.0,7.0,55,0.00,,,-99.99,VWS V9.05,2013-03-03 09:52:00,
2013-03-03 02:00:00,53.6,37.4,30.13,SSW,200,0.0,2.0,54,0.00,,,-99.99,VWS V9.05,2013-03-03 10:00:00,
2013-03-03 02:08:00,53.5,37.8,30.14,SSW,200,1.0,2.0,55,0.00,,,-99.99,VWS V9.05,2013-03-03 10:08:00,
2013-03-03 02:14:00,53.6,37.4,30.13,SSW,200,3.0,5.0,54,0.00,,,-99.99,VWS V9.05,2013-03-03 10:14:00,
2013-03-03 02:22:00,53.4,37.7,30.13,WNW,291,2.0,3.0,55,0.00,,,-99.99,VWS V9.05,2013-03-03 10:22:00,
2013-03-03 02:30:00,52.7,42.1,30.13,NNW,331,2.0,6.0,67,0.00,,,-99.99,VWS V9.05,2013-03-03 10:30:00,
2013-03-03 02:38:00,52.6,42.7,30.13,NNW,332,1.0,6.0,69,0.00,,,-99.99,VWS V9.05,2013-03-03 10:38:00,
2013-03-03 02:44:00,52.3,37.1,30.13,NNW,332,0.0,6.0,56,0.00,,,-99.99,VWS V9.05,2013-03-03 10:44:00,
2013-03-03 02:52:00,52.3,37.1,30.12,NNW,332,0.0,6.0,56,0.00,,,-99.99,VWS V9.05,2013-03-03 10:52:00,
2013-03-03 03:00:00,52.6,37.4,30.11,NNW,332,0.0,0.0,56,0.00,,,-99.99,VWS V9.05,2013-03-03 11:00:00,
2013-03-03 03:08:00,52.7,37.5,30.11,NNW,332,0.0,0.0,56,0.00,,,-99.99,VWS V9.05,2013-03-03 11:08:00,
2013-03-03 03:14:00,52.9,37.7,30.11,NNW,332,0.0,2.0,56,0.00,,,-99.99,VWS V9.05,2013-03-03 11:14:00,
2013-03-03 03:22:00,52.9,37.7,30.11,ESE,115,1.0,4.0,56,0.00,,,-99.99,VWS V9.05,2013-03-03 11:22:00,
2013-03-03 03:30:00,52.9,37.7,30.10,SSE,147,6.0,9.0,56,0.00,,,-99.99,VWS V9.05,2013-03-03 11:30:00,
2013-03-03 03:38:00,52.1,37.3,30.11,North,0,9.0,10.0,57,0.00,,,-99.99,VWS V9.05,2013-03-03 11:38:00,
2013-03-03 03:44:00,51.8,38.8,30.11,North,0,1.0,10.0,61,0.00,,,-99.99,VWS V9.05,2013-03-03 11:44:00,
2013-03-03 03:52:00,51.5,42.0,30.11,North,0,0.0,10.0,70,0.00,,,-99.99,VWS V9.05,2013-03-03 11:52:00,
2013-03-03 04:00:00,51.6,37.8,30.11,North,0,0.0,2.0,59,0.00,,,-99.99,VWS V9.05,2013-03-03 12:00:00,
2013-03-03 04:08:00,51.5,38.5,30.12,North,0,0.0,3.0,61,0.00,,,-99.99,VWS V9.05,2013-03-03 12:08:00,
2013-03-03 04:14:00,51.7,38.3,30.12,North,0,0.0,3.0,60,0.00,,,-99.99,VWS V9.05,2013-03-03 12:14:00,
2013-03-03 04:22:00,51.7,38.7,30.11,SSE,153,0.0,6.0,61,0.00,,,-99.99,VWS V9.05,2013-03-03 12:22:00,
2013-03-03 04:30:00,51.9,38.5,30.12,SSE,160,0.0,6.0,60,0.00,,,-99.99,VWS V9.05,2013-03-03 12:30:00,
2013-03-03 04:38:00,51.9,38.5,30.12,SSE,160,3.0,6.0,60,0.00,,,-99.99,VWS V9.05,2013-03-03 12:38:00,
2013-03-03 04:44:00,51.9,38.5,30.12,SSE,159,1.0,7.0,60,0.00,,,-99.99,VWS V9.05,2013-03-03 12:44:00,
2013-03-03 04:52:00,51.4,38.4,30.12,SSE,159,0.0,7.0,61,0.00,,,-99.99,VWS V9.05,2013-03-03 12:52:00,
2013-03-03 05:00:00,51.3,38.3,30.12,SSE,159,0.0,1.0,61,0.00,,,-99.99,VWS V9.05,2013-03-03 13:00:00,
2013-03-03 05:08:00,51.5,38.5,30.12,SSE,160,1.0,3.0,61,0.00,,,-99.99,VWS V9.05,2013-03-03 13:08:00,
2013-03-03 05:14:00,51.5,39.3,30.12,SSE,162,0.0,3.0,63,0.00,,,-99.99,VWS V9.05,2013-03-03 13:14:00,
2013-03-03 05:22:00,51.5,38.9,30.12,SSE,162,2.0,2.0,62,0.00,,,-99.99,VWS V9.05,2013-03-03 13:22:00,
2013-03-03 05:30:00,51.5,38.9,30.12,SSE,162,1.0,3.0,62,0.00,,,-99.99,VWS V9.05,2013-03-03 13:30:00,
2013-03-03 05:38:00,51.5,38.9,30.12,SSE,162,0.0,1.0,62,0.00,,,-99.99,VWS V9.05,2013-03-03 13:38:00,
2013-03-03 05:44:00,51.4,39.2,30.12,SSE,162,1.0,2.0,63,0.00,,,-99.99,VWS V9.05,2013-03-03 13:44:00,
2013-03-03 05:52:00,51.2,39.0,30.12,SSE,162,0.0,2.0,63,0.00,,,-99.99,VWS V9.05,2013-03-03 13:52:00,
2013-03-03 06:00:00,51.2,39.8,30.12,SSE,162,1.0,2.0,65,0.00,,,-99.99,VWS V9.05,2013-03-03 14:00:00,
2013-03-03 06:08:00,51.1,39.8,30.12,SSE,162,0.0,2.0,65,0.00,,,-99.99,VWS V9.05,2013-03-03 14:08:00,
2013-03-03 06:14:00,51.1,39.4,30.13,SSE,163,1.0,3.0,64,0.00,,,-99.99,VWS V9.05,2013-03-03 14:14:00,
2013-03-03 06:22:00,51.0,38.5,30.12,SSE,163,2.0,2.0,62,0.00,,,-99.99,VWS V9.05,2013-03-03 14:22:00,
2013-03-03 06:30:00,51.0,38.0,30.12,SSE,163,1.0,3.0,61,0.00,,,-99.99,VWS V9.05,2013-03-03 14:30:00,
2013-03-03 06:38:00,51.0,38.0,30.12,SSE,163,0.0,1.0,61,0.00,,,-99.99,VWS V9.05,2013-03-03 14:38:00,
2013-03-03 06:44:00,51.0,38.0,30.13,SSE,163,0.0,1.0,61,0.00,,,-99.99,VWS V9.05,2013-03-03 14:44:00,
2013-03-03 06:52:00,51.1,39.0,30.13,SSE,163,0.0,2.0,63,0.00,,,-99.99,VWS V9.05,2013-03-03 14:52:00,
2013-03-03 07:00:00,51.0,38.5,30.13,SSE,163,0.0,1.0,62,0.00,,,-99.99,VWS V9.05,2013-03-03 15:00:00,
2013-03-03 07:08:00,51.0,38.5,30.13,SSE,163,0.0,2.0,62,0.00,,,-99.99,VWS V9.05,2013-03-03 15:08:00,
2013-03-03 07:14:00,51.2,38.6,30.13,SSE,163,0.0,4.0,62,0.00,,,-99.99,VWS V9.05,2013-03-03 15:14:00,
2013-03-03 07:22:00,51.3,38.7,30.13,SSE,163,0.0,2.0,62,0.00,,,-99.99,VWS V9.05,2013-03-03 15:22:00,
2013-03-03 07:30:00,51.4,38.8,30.13,SSE,163,3.0,4.0,62,0.00,,,-99.99,VWS V9.05,2013-03-03 15:30:00,
2013-03-03 07:38:00,51.5,38.9,30.14,SSE,163,4.0,5.0,62,0.00,,,-99.99,VWS V9.05,2013-03-03 15:38:00,
2013-03-03 07:44:00,51.7,39.1,30.14,SSE,167,1.0,8.0,62,0.00,,,-99.99,VWS V9.05,2013-03-03 15:44:00,
2013-03-03 07:52:00,51.8,39.2,30.14,South,172,4.0,8.0,62,0.00,,,-99.99,VWS V9.05,2013-03-03 15:52:00,
2013-03-03 08:00:00,52.1,39.1,30.14,SSE,168,3.0,3.0,61,0.00,,,-99.99,VWS V9.05,2013-03-03 16:00:00,
2013-03-03 08:08:00,52.5,39.0,30.14,South,169,2.0,3.0,60,0.00,,,-99.99,VWS V9.05,2013-03-03 16:08:00,
2013-03-03 08:14:00,52.6,39.1,30.14,SW,222,0.0,3.0,60,0.00,,,-99.99,VWS V9.05,2013-03-03 16:14:00,
2013-03-03 08:22:00,52.9,39.4,30.14,SW,232,1.0,3.0,60,0.00,,,-99.99,VWS V9.05,2013-03-03 16:22:00,
2013-03-03 08:30:00,53.1,39.2,30.14,NNW,340,6.0,7.0,59,0.00,,,-99.99,VWS V9.05,2013-03-03 16:30:00,
2013-03-03 08:38:00,53.0,38.6,30.14,NNW,334,0.0,6.0,58,0.00,,,-99.99,VWS V9.05,2013-03-03 16:38:00,
2013-03-03 08:44:00,52.6,38.3,30.14,North,0,1.0,7.0,58,0.00,,,-99.99,VWS V9.05,2013-03-03 16:44:00,
2013-03-03 08:52:00,52.6,38.3,30.14,North,0,1.0,7.0,58,0.00,,,-99.99,VWS V9.05,2013-03-03 16:52:00,
2013-03-03 09:00:00,53.3,38.5,30.14,ENE,77,2.0,3.0,57,0.00,,,-99.99,VWS V9.05,2013-03-03 17:00:00,
2013-03-03 09:08:00,54.3,38.5,30.14,North,4,0.0,4.0,55,0.00,,,-99.99,VWS V9.05,2013-03-03 17:08:00,
2013-03-03 09:14:00,55.1,38.8,30.15,WNW,296,4.0,9.0,54,0.00,,,-99.99,VWS V9.05,2013-03-03 17:14:00,
2013-03-03 09:22:00,55.6,39.2,30.15,WNW,302,9.0,15.0,54,0.00,,,-99.99,VWS V9.05,2013-03-03 17:22:00,
2013-03-03 09:30:00,55.6,39.2,30.15,WNW,287,6.0,15.0,54,0.00,,,-99.99,VWS V9.05,2013-03-03 17:30:00,
2013-03-03 09:38:00,55.7,39.3,30.15,WNW,302,6.0,11.0,54,0.00,,,-99.99,VWS V9.05,2013-03-03 17:38:00,
2013-03-03 09:44:00,55.8,39.4,30.14,NW,316,7.0,17.0,54,0.00,,,-99.99,VWS V9.05,2013-03-03 17:44:00,
2013-03-03 09:52:00,56.1,39.2,30.14,WNW,283,14.0,17.0,53,0.00,,,-99.99,VWS V9.05,2013-03-03 17:52:00,
2013-03-03 10:00:00,56.5,39.6,30.15,WNW,284,6.0,16.0,53,0.00,,,-99.99,VWS V9.05,2013-03-03 18:00:00,
2013-03-03 10:08:00,56.8,38.9,30.15,WNW,292,11.0,17.0,51,0.00,,,-99.99,VWS V9.05,2013-03-03 18:08:00,
2013-03-03 10:14:00,57.1,38.7,30.15,WNW,297,13.0,17.0,50,0.00,,,-99.99,VWS V9.05,2013-03-03 18:14:00,
2013-03-03 10:22:00,57.4,38.9,30.15,NW,305,5.0,13.0,50,0.00,,,-99.99,VWS V9.05,2013-03-03 18:22:00,
2013-03-03 10:30:00,57.1,38.7,30.15,NNW,332,4.0,13.0,50,0.00,,,-99.99,VWS V9.05,2013-03-03 18:30:00,
2013-03-03 10:38:00,56.9,38.5,30.14,NW,324,5.0,9.0,50,0.00,,,-99.99,VWS V9.05,2013-03-03 18:38:00,
2013-03-03 10:44:00,57.3,38.3,30.14,NNW,341,5.0,9.0,49,0.00,,,-99.99,VWS V9.05,2013-03-03 18:44:00,
2013-03-03 10:52:00,57.9,38.9,30.14,NW,318,3.0,10.0,49,0.00,,,-99.99,VWS V9.05,2013-03-03 18:52:00,
2013-03-03 11:00:00,58.1,39.1,30.15,NNW,341,2.0,4.0,49,0.00,,,-99.99,VWS V9.05,2013-03-03 19:00:00,
2013-03-03 11:08:00,58.2,38.6,30.15,NNW,334,10.0,10.0,48,0.00,,,-99.99,VWS V9.05,2013-03-03 19:08:00,
2013-03-03 11:14:00,58.9,43.2,30.14,NW,324,11.0,11.0,56,0.00,,,-99.99,VWS V9.05,2013-03-03 19:14:00,
2013-03-03 11:22:00,58.7,43.5,30.14,NW,314,7.0,11.0,57,0.00,,,-99.99,VWS V9.05,2013-03-03 19:22:00,
2013-03-03 11:30:00,58.9,43.7,30.14,NW,326,4.0,13.0,57,0.00,,,-99.99,VWS V9.05,2013-03-03 19:30:00,
2013-03-03 11:38:00,59.3,40.7,30.14,NNW,331,14.0,15.0,50,0.00,,,-99.99,VWS V9.05,2013-03-03 19:38:00,
2013-03-03 11:44:00,59.8,39.0,30.14,WNW,300,11.0,17.0,46,0.00,,,-99.99,VWS V9.05,2013-03-03 19:44:00,
2013-03-03 11:52:00,59.9,38.5,30.14,NNW,335,7.0,17.0,45,0.00,,,-99.99,VWS V9.05,2013-03-03 19:52:00,
2013-03-03 12:00:00,59.3,39.1,30.14,NW,305,10.0,15.0,47,0.00,,,-99.99,VWS V9.05,2013-03-03 20:00:00,
2013-03-03 12:08:00,59.3,39.1,30.13,NW,321,9.0,16.0,47,0.00,,,-99.99,VWS V9.05,2013-03-03 20:08:00,
2013-03-03 12:14:00,59.5,39.3,30.13,NW,312,13.0,16.0,47,0.00,,,-99.99,VWS V9.05,2013-03-03 20:14:00,
2013-03-03 12:22:00,59.6,38.8,30.13,NNW,337,5.0,16.0,46,0.00,,,-99.99,VWS V9.05,2013-03-03 20:22:00,
2013-03-03 12:30:00,60.0,39.2,30.13,WNW,300,7.0,16.0,46,0.00,,,-99.99,VWS V9.05,2013-03-03 20:30:00,
2013-03-03 12:38:00,60.2,39.4,30.12,WNW,283,16.0,18.0,46,0.00,,,-99.99,VWS V9.05,2013-03-03 20:38:00,
2013-03-03 12:44:00,60.3,39.5,30.12,WNW,292,11.0,18.0,46,0.00,,,-99.99,VWS V9.05,2013-03-03 20:44:00,
2013-03-03 12:52:00,60.4,39.5,30.12,WNW,290,11.0,18.0,46,0.00,,,-99.99,VWS V9.05,2013-03-03 20:52:00,
2013-03-03 13:00:00,60.4,39.5,30.11,WSW,258,4.0,16.0,46,0.00,,,-99.99,VWS V9.05,2013-03-03 21:00:00,
2013-03-03 13:08:00,60.4,39.0,30.12,West,278,6.0,18.0,45,0.00,,,-99.99,VWS V9.05,2013-03-03 21:08:00,
2013-03-03 13:14:00,60.3,38.9,30.11,WNW,302,11.0,18.0,45,0.00,,,-99.99,VWS V9.05,2013-03-03 21:14:00,
2013-03-03 13:22:00,60.2,39.4,30.11,WNW,285,9.0,16.0,46,0.00,,,-99.99,VWS V9.05,2013-03-03 21:22:00,
2013-03-03 13:30:00,59.9,39.1,30.11,West,277,9.0,16.0,46,0.00,,,-99.99,VWS V9.05,2013-03-03 21:30:00,
2013-03-03 13:38:00,59.8,39.0,30.11,West,271,11.0,14.0,46,0.00,,,-99.99,VWS V9.05,2013-03-03 21:38:00,
2013-03-03 13:44:00,59.8,38.4,30.11,WNW,293,13.0,16.0,45,0.00,,,-99.99,VWS V9.05,2013-03-03 21:44:00,
2013-03-03 13:52:00,59.7,38.9,30.10,WNW,284,8.0,18.0,46,0.00,,,-99.99,VWS V9.05,2013-03-03 21:52:00,
2013-03-03 14:00:00,59.5,38.7,30.10,West,273,8.0,15.0,46,0.00,,,-99.99,VWS V9.05,2013-03-03 22:00:00,
2013-03-03 14:08:00,59.3,38.0,30.11,WNW,296,11.0,19.0,45,0.00,,,-99.99,VWS V9.05,2013-03-03 22:08:00,
2013-03-03 14:14:00,59.3,38.0,30.11,WNW,293,9.0,19.0,45,0.00,,,-99.99,VWS V9.05,2013-03-03 22:14:00,
2013-03-03 14:22:00,59.1,38.4,30.10,NW,312,5.0,18.0,46,0.00,,,-99.99,VWS V9.05,2013-03-03 22:22:00,
2013-03-03 14:30:00,59.0,38.3,30.10,WNW,292,10.0,18.0,46,0.00,,,-99.99,VWS V9.05,2013-03-03 22:30:00,
2013-03-03 14:38:00,59.2,38.5,30.10,WNW,296,3.0,7.0,46,0.00,,,-99.99,VWS V9.05,2013-03-03 22:38:00,
2013-03-03 14:44:00,59.1,38.4,30.10,WNW,289,9.0,16.0,46,0.00,,,-99.99,VWS V9.05,2013-03-03 22:44:00,
2013-03-03 14:52:00,59.1,38.4,30.10,WSW,240,9.0,16.0,46,0.00,,,-99.99,VWS V9.05,2013-03-03 22:52:00,
2013-03-03 15:00:00,59.2,38.5,30.10,WSW,253,8.0,12.0,46,0.00,,,-99.99,VWS V9.05,2013-03-03 23:00:00,
2013-03-03 15:08:00,59.1,38.4,30.09,NW,320,7.0,13.0,46,0.00,,,-99.99,VWS V9.05,2013-03-03 23:08:00,
2013-03-03 15:14:00,59.0,38.3,30.09,West,277,4.0,13.0,46,0.00,,,-99.99,VWS V9.05,2013-03-03 23:14:00,
2013-03-03 15:22:00,58.8,38.1,30.09,NW,320,5.0,10.0,46,0.00,,,-99.99,VWS V9.05,2013-03-03 23:22:00,
2013-03-03 15:30:00,57.8,37.7,30.09,NNW,344,3.0,12.0,47,0.00,,,-99.99,VWS V9.05,2013-03-03 23:30:00,
2013-03-03 15:38:00,57.6,38.1,30.09,WNW,299,7.0,8.0,48,0.00,,,-99.99,VWS V9.05,2013-03-03 23:38:00,
2013-03-03 15:44:00,57.6,38.1,30.09,NW,311,6.0,9.0,48,0.00,,,-99.99,VWS V9.05,2013-03-03 23:44:00,
2013-03-03 15:52:00,57.5,38.0,30.09,WNW,284,8.0,10.0,48,0.00,,,-99.99,VWS V9.05,2013-03-03 23:52:00,
2013-03-03 16:00:00,57.5,38.0,30.09,WNW,296,13.0,16.0,48,0.00,,,-99.99,VWS V9.05,2013-03-04 00:00:00,
2013-03-03 16:08:00,57.4,37.9,30.09,West,278,8.0,16.0,48,0.00,,,-99.99,VWS V9.05,2013-03-04 00:08:00,
2013-03-03 16:14:00,57.3,37.8,30.09,WNW,284,5.0,16.0,48,0.00,,,-99.99,VWS V9.05,2013-03-04 00:14:00,
2013-03-03 16:22:00,57.0,37.5,30.09,West,264,5.0,13.0,48,0.00,,,-99.99,VWS V9.05,2013-03-04 00:22:00,
2013-03-03 16:30:00,56.7,37.8,30.09,WNW,298,8.0,13.0,49,0.00,,,-99.99,VWS V9.05,2013-03-04 00:30:00,
2013-03-03 16:38:00,56.4,37.5,30.09,West,273,9.0,12.0,49,0.00,,,-99.99,VWS V9.05,2013-03-04 00:38:00,
2013-03-03 16:44:00,56.1,37.2,30.09,West,259,11.0,15.0,49,0.00,,,-99.99,VWS V9.05,2013-03-04 00:44:00,
2013-03-03 16:52:00,55.7,36.8,30.09,West,259,9.0,15.0,49,0.00,,,-99.99,VWS V9.05,2013-03-04 00:52:00,
2013-03-03 17:00:00,55.2,36.4,30.09,WNW,282,9.0,12.0,49,0.00,,,-99.99,VWS V9.05,2013-03-04 01:00:00,
2013-03-03 17:08:00,54.8,36.5,30.09,West,280,8.0,13.0,50,0.00,,,-99.99,VWS V9.05,2013-03-04 01:08:00,
2013-03-03 17:14:00,54.5,36.3,30.09,West,261,9.0,13.0,50,0.00,,,-99.99,VWS V9.05,2013-03-04 01:14:00,
2013-03-03 17:22:00,54.3,36.1,30.09,West,264,10.0,12.0,50,0.00,,,-99.99,VWS V9.05,2013-03-04 01:22:00,
2013-03-03 17:30:00,53.9,35.7,30.09,West,270,6.0,12.0,50,0.00,,,-99.99,VWS V9.05,2013-03-04 01:30:00,
2013-03-03 17:38:00,53.5,35.8,30.09,West,262,7.0,12.0,51,0.00,,,-99.99,VWS V9.05,2013-03-04 01:38:00,
2013-03-03 17:44:00,53.1,40.8,30.10,West,281,4.0,12.0,63,0.00,,,-99.99,VWS V9.05,2013-03-04 01:44:00,
2013-03-03 17:52:00,52.8,37.5,30.10,WSW,249,7.0,12.0,56,0.00,,,-99.99,VWS V9.05,2013-03-04 01:52:00,
2013-03-03 18:00:00,52.4,34.8,30.10,WSW,252,4.0,10.0,51,0.00,,,-99.99,VWS V9.05,2013-03-04 02:00:00,
2013-03-03 18:08:00,52.1,35.0,30.10,SW,236,6.0,11.0,52,0.00,,,-99.99,VWS V9.05,2013-03-04 02:08:00,
2013-03-03 18:14:00,51.8,34.8,30.10,WSW,244,6.0,12.0,52,0.00,,,-99.99,VWS V9.05,2013-03-04 02:14:00,
2013-03-03 18:22:00,51.5,35.4,30.10,WSW,253,5.0,12.0,54,0.00,,,-99.99,VWS V9.05,2013-03-04 02:22:00,
2013-03-03 18:30:00,51.3,36.6,30.10,West,261,6.0,12.0,57,0.00,,,-99.99,VWS V9.05,2013-03-04 02:30:00,
2013-03-03 18:38:00,51.1,36.4,30.10,West,277,3.0,9.0,57,0.00,,,-99.99,VWS V9.05,2013-03-04 02:38:00,
2013-03-03 18:44:00,50.8,35.7,30.10,West,265,5.0,9.0,56,0.00,,,-99.99,VWS V9.05,2013-03-04 02:44:00,
2013-03-03 18:52:00,50.6,35.9,30.10,SW,232,9.0,10.0,57,0.00,,,-99.99,VWS V9.05,2013-03-04 02:52:00,
2013-03-03 19:00:00,50.4,38.3,30.11,WSW,257,4.0,7.0,63,0.00,,,-99.99,VWS V9.05,2013-03-04 03:00:00,
2013-03-03 19:08:00,50.2,38.9,30.11,SW,236,5.0,9.0,65,0.00,,,-99.99,VWS V9.05,2013-03-04 03:08:00,
2013-03-03 19:14:00,50.0,37.1,30.11,WSW,247,6.0,11.0,61,0.00,,,-99.99,VWS V9.05,2013-03-04 03:14:00,
2013-03-03 19:22:00,49.9,40.2,30.11,WNW,288,3.0,5.0,69,0.00,,,-99.99,VWS V9.05,2013-03-04 03:22:00,
2013-03-03 19:30:00,49.5,40.5,30.11,WNW,282,1.0,5.0,71,0.00,,,-99.99,VWS V9.05,2013-03-04 03:30:00,
2013-03-03 19:38:00,49.2,34.6,30.12,WSW,245,6.0,6.0,57,0.00,,,-99.99,VWS V9.05,2013-03-04 03:38:00,
2013-03-03 19:44:00,49.1,39.4,30.12,WNW,284,2.0,6.0,69,0.00,,,-99.99,VWS V9.05,2013-03-04 03:44:00,
2013-03-03 19:52:00,48.9,36.9,30.12,WNW,284,0.0,6.0,63,0.00,,,-99.99,VWS V9.05,2013-03-04 03:52:00,
2013-03-03 20:00:00,48.7,35.5,30.12,WSW,257,0.0,2.0,60,0.00,,,-99.99,VWS V9.05,2013-03-04 04:00:00,
2013-03-03 20:08:00,48.5,38.8,30.12,WSW,257,1.0,2.0,69,0.00,,,-99.99,VWS V9.05,2013-03-04 04:08:00,
2013-03-03 20:14:00,48.5,39.5,30.12,WSW,257,0.0,2.0,71,0.00,,,-99.99,VWS V9.05,2013-03-04 04:14:00,
2013-03-03 20:22:00,48.2,36.2,30.12,WSW,257,1.0,4.0,63,0.00,,,-99.99,VWS V9.05,2013-03-04 04:22:00,
2013-03-03 20:30:00,48.1,36.1,30.12,West,264,3.0,4.0,63,0.00,,,-99.99,VWS V9.05,2013-03-04 04:30:00,
2013-03-03 20:38:00,47.7,35.7,30.12,West,264,0.0,1.0,63,0.00,,,-99.99,VWS V9.05,2013-03-04 04:38:00,
2013-03-03 20:44:00,47.2,35.7,30.12,West,264,2.0,3.0,64,0.00,,,-99.99,VWS V9.05,2013-03-04 04:44:00,
2013-03-03 20:52:00,47.1,35.2,30.13,NW,307,4.0,7.0,63,0.00,,,-99.99,VWS V9.05,2013-03-04 04:52:00,
2013-03-03 21:00:00,47.3,34.5,30.13,WNW,293,0.0,4.0,61,0.00,,,-99.99,VWS V9.05,2013-03-04 05:00:00,
2013-03-03 21:02:00,47.3,34.5,30.13,WNW,293,1.0,4.0,61,0.00,,,-99.99,VWS V9.05,2013-03-04 05:02:00,
2013-03-03 21:08:00,47.1,34.4,30.13,WNW,293,1.0,4.0,61,0.00,,,-99.99,VWS V9.05,2013-03-04 05:08:00,
2013-03-03 21:14:00,47.1,34.4,30.13,WNW,293,1.0,5.0,61,0.00,,,-99.99,VWS V9.05,2013-03-04 05:14:00,
2013-03-03 21:18:00,47.1,34.8,30.13,WNW,293,3.0,4.0,62,0.00,,,-99.99,VWS V9.05,2013-03-04 05:18:00,
2013-03-03 21:30:00,46.9,36.2,30.14,WNW,293,1.0,6.0,66,0.00,,,-99.99,VWS V9.05,2013-03-04 05:30:00,
2013-03-03 21:38:00,46.9,35.4,30.14,WNW,293,1.0,4.0,64,0.00,,,-99.99,VWS V9.05,2013-03-04 05:38:00,
2013-03-03 21:44:00,46.8,35.3,30.14,WNW,286,1.0,6.0,64,0.00,,,-99.99,VWS V9.05,2013-03-04 05:44:00,
2013-03-03 21:52:00,46.7,36.0,30.14,West,280,1.0,6.0,66,0.00,,,-99.99,VWS V9.05,2013-03-04 05:52:00,
2013-03-03 22:00:00,46.7,36.3,30.14,West,280,1.0,2.0,67,0.00,,,-99.99,VWS V9.05,2013-03-04 06:00:00,
2013-03-03 22:08:00,46.4,37.9,30.15,West,280,0.0,3.0,72,0.00,,,-99.99,VWS V9.05,2013-03-04 06:08:00,
2013-03-03 22:14:00,46.3,38.1,30.14,West,280,1.0,3.0,73,0.00,,,-99.99,VWS V9.05,2013-03-04 06:14:00,
2013-03-03 22:22:00,46.2,33.9,30.14,NW,307,5.0,5.0,62,0.00,,,-99.99,VWS V9.05,2013-03-04 06:22:00,
2013-03-03 22:30:00,46.3,36.0,30.14,NW,323,5.0,7.0,67,0.00,,,-99.99,VWS V9.05,2013-03-04 06:30:00,
2013-03-03 22:38:00,46.3,36.7,30.14,NW,323,1.0,4.0,69,0.00,,,-99.99,VWS V9.05,2013-03-04 06:38:00,
2013-03-03 22:44:00,46.3,37.1,30.15,NW,320,4.0,7.0,70,0.00,,,-99.99,VWS V9.05,2013-03-04 06:44:00,
2013-03-03 22:52:00,46.4,37.9,30.15,NW,317,5.0,7.0,72,0.00,,,-99.99,VWS V9.05,2013-03-04 06:52:00,
2013-03-03 23:00:00,46.4,37.5,30.14,NW,317,3.0,5.0,71,0.00,,,-99.99,VWS V9.05,2013-03-04 07:00:00,
2013-03-03 23:08:00,46.3,37.8,30.14,NW,317,2.0,5.0,72,0.00,,,-99.99,VWS V9.05,2013-03-04 07:08:00,
2013-03-03 23:14:00,46.1,37.6,30.14,NW,317,1.0,5.0,72,0.00,,,-99.99,VWS V9.05,2013-03-04 07:14:00,
2013-03-03 23:22:00,46.0,37.5,30.14,NW,317,3.0,4.0,72,0.00,,,-99.99,VWS V9.05,2013-03-04 07:22:00,
2013-03-03 23:30:00,45.8,37.7,30.14,NW,317,1.0,4.0,73,0.00,,,-99.99,VWS V9.05,2013-03-04 07:30:00,
2013-03-03 23:38:00,45.7,38.6,30.13,NW,317,2.0,2.0,76,0.00,,,-99.99,VWS V9.05,2013-03-04 07:38:00,
2013-03-03 23:44:00,45.5,38.0,30.14,NW,317,0.0,2.0,75,0.00,,,-99.99,VWS V9.05,2013-03-04 07:44:00,
2013-03-03 23:52:00,45.4,39.0,30.14,NW,317,2.0,3.0,78,0.00,,,-99.99,VWS V9.05,2013-03-04 07:52:00,